Terminal Aerodrome Forecast
Issued by NWS Portland, OR

Home | Current Version | Previous Version | Text Only | Print | Product List | Glossary On
Versions: 1 2 3 4 5 6 7 8 9 10 11 12 13 14 15 16 17 18 19 20 21 22 23 24 25 26 27 28 29 30 31 32 33 34 35 36 37
000
FTUS46 KPQR 291316 AAA
TAFSLE
TAF AMD
KSLE 291316Z 2913/3012 VRB03KT P6SM SCT250
     FM292000 20007KT P6SM BKN100
     FM300600 20012KT P6SM -RA OVC050
     FM300800 18012KT P6SM -RA BKN025 OVC035=

USA.gov is the U.S. government's official web portal to all federal, state and local government web resources and services.